Time,TemperatureF,DewpointF,PressureIn,WindDirection,WindDirectionDegrees,WindSpeedMPH,WindSpeedGustMPH,Humidity,HourlyPrecipIn,Conditions,Clouds,dailyrainin,SolarRadiationWatts/m^2,SoftwareType,DateUTC
2013-03-23 00:08:00,20.9,14.5,30.26,West,267,12.0,15.0,76,0.00,,,0.00,0,Wunderground v.1.15,2013-03-23 06:08:00,
2013-03-23 00:18:00,20.8,15.0,30.27,West,260,12.0,15.0,78,0.00,,,0.00,0,Wunderground v.1.15,2013-03-23 06:18:00,
2013-03-23 00:24:00,20.7,14.6,30.27,West,266,12.0,15.0,77,0.00,,,0.00,0,Wunderground v.1.15,2013-03-23 06:24:00,
2013-03-23 00:40:00,20.3,14.2,30.28,West,275,11.0,15.0,77,0.00,,,0.00,0,Wunderground v.1.15,2013-03-23 06:40:00,
2013-03-23 01:20:00,19.0,13.6,30.29,NW,307,6.0,15.0,79,0.00,,,0.00,0,Wunderground v.1.15,2013-03-23 07:20:00,
2013-03-23 01:28:00,18.9,13.5,30.30,NW,304,6.0,15.0,79,0.00,,,0.00,0,Wunderground v.1.15,2013-03-23 07:28:00,
2013-03-23 01:36:00,18.1,12.4,30.29,NNW,333,5.0,15.0,78,0.00,,,0.00,0,Wunderground v.1.15,2013-03-23 07:36:00,
2013-03-23 01:46:00,17.6,11.9,30.30,NNW,336,4.0,15.0,78,0.00,,,0.00,0,Wunderground v.1.15,2013-03-23 07:46:00,
2013-03-23 01:52:00,17.4,11.7,30.30,NNW,337,4.0,15.0,78,0.00,,,0.00,0,Wunderground v.1.15,2013-03-23 07:52:00,
2013-03-23 02:04:00,17.2,11.8,30.30,NNW,334,4.0,15.0,79,0.00,,,0.00,0,Wunderground v.1.15,2013-03-23 08:04:00,
2013-03-23 02:16:00,17.1,12.0,30.30,NNW,334,3.0,15.0,80,0.00,,,0.00,0,Wunderground v.1.15,2013-03-23 08:16:00,
2013-03-23 02:32:00,17.3,11.9,30.30,NW,310,4.0,4.0,79,0.00,,,0.00,0,Wunderground v.1.15,2013-03-23 08:32:00,
2013-03-23 02:50:00,17.7,12.0,30.31,WNW,297,5.0,15.0,78,0.00,,,0.00,0,Wunderground v.1.15,2013-03-23 08:50:00,
2013-03-23 03:12:00,17.8,12.4,30.31,WNW,294,4.0,15.0,79,0.00,,,0.00,0,Wunderground v.1.15,2013-03-23 09:12:00,
2013-03-23 03:30:00,18.4,13.0,30.31,West,280,8.0,8.0,79,0.00,,,0.00,0,Wunderground v.1.15,2013-03-23 09:30:00,
2013-03-23 03:40:00,18.2,12.5,30.31,NW,320,5.0,15.0,78,0.00,,,0.00,0,Wunderground v.1.15,2013-03-23 09:40:00,
2013-03-23 03:54:00,17.8,13.0,30.32,WNW,293,5.0,15.0,81,0.00,,,0.00,0,Wunderground v.1.15,2013-03-23 09:54:00,
2013-03-23 04:20:00,17.7,13.7,30.32,West,263,6.0,6.0,84,0.00,,,0.00,0,Wunderground v.1.15,2013-03-23 10:20:00,
2013-03-23 04:32:00,17.9,14.2,30.32,West,275,5.0,15.0,85,0.00,,,0.00,0,Wunderground v.1.15,2013-03-23 10:32:00,
2013-03-23 04:38:00,17.8,13.8,30.32,WSW,251,5.0,15.0,84,0.00,,,0.00,0,Wunderground v.1.15,2013-03-23 10:38:00,
2013-03-23 04:52:00,17.6,13.3,30.33,West,271,7.0,15.0,83,0.00,,,0.00,0,Wunderground v.1.15,2013-03-23 10:52:00,
2013-03-23 05:16:00,17.4,13.4,30.33,WSW,253,6.0,15.0,84,0.00,,,0.00,0,Wunderground v.1.15,2013-03-23 11:16:00,
2013-03-23 05:46:00,17.3,13.8,30.34,WNW,285,4.0,15.0,86,0.00,,,0.00,0,Wunderground v.1.15,2013-03-23 11:46:00,
2013-03-23 06:04:00,16.7,13.2,30.34,NW,306,4.0,9.0,86,0.00,,,0.00,0,Wunderground v.1.15,2013-03-23 12:04:00,
2013-03-23 06:18:00,16.1,12.7,30.35,NW,306,2.0,9.0,86,0.00,,,0.00,0,Wunderground v.1.15,2013-03-23 12:18:00,
2013-03-23 06:40:00,16.2,12.2,30.36,NNW,341,3.0,9.0,84,0.00,,,0.00,0,Wunderground v.1.15,2013-03-23 12:40:00,
2013-03-23 06:46:00,16.4,12.7,30.36,NNW,341,3.0,9.0,85,0.00,,,0.00,0,Wunderground v.1.15,2013-03-23 12:46:00,
2013-03-23 07:08:00,16.8,12.8,30.37,ENE,64,6.0,9.0,84,0.00,,,0.00,0,Wunderground v.1.15,2013-03-23 13:08:00,
2013-03-23 07:22:00,16.1,12.1,30.37,ENE,71,6.0,9.0,84,0.00,,,0.00,0,Wunderground v.1.15,2013-03-23 13:22:00,
2013-03-23 07:46:00,15.9,12.2,30.38,NE,52,7.0,9.0,85,0.00,,,0.00,12,Wunderground v.1.15,2013-03-23 13:46:00,
2013-03-23 07:58:00,15.8,12.1,30.38,NE,50,7.0,9.0,85,0.00,,,0.00,44,Wunderground v.1.15,2013-03-23 13:58:00,
2013-03-23 08:20:00,15.9,12.5,30.39,NE,48,7.0,9.0,86,0.00,,,0.00,107,Wunderground v.1.15,2013-03-23 14:20:00,
2013-03-23 08:26:00,16.0,12.3,30.39,ENE,76,8.0,9.0,85,0.00,,,0.00,114,Wunderground v.1.15,2013-03-23 14:26:00,
2013-03-23 08:40:00,16.3,12.0,30.39,ENE,68,4.0,4.0,83,0.00,,,0.00,176,Wunderground v.1.15,2013-03-23 14:40:00,
2013-03-23 08:46:00,16.7,12.4,30.39,ENE,68,3.0,9.0,83,0.00,,,0.00,188,Wunderground v.1.15,2013-03-23 14:46:00,
2013-03-23 08:54:00,17.2,12.6,30.39,ENE,68,3.0,9.0,82,0.00,,,0.00,213,Wunderground v.1.15,2013-03-23 14:54:00,
2013-03-23 09:14:00,18.2,13.3,30.39,ENE,77,3.0,9.0,81,0.00,,,0.00,267,Wunderground v.1.15,2013-03-23 15:14:00,
2013-03-23 09:22:00,18.6,13.2,30.39,ENE,77,3.0,9.0,79,0.00,,,0.00,288,Wunderground v.1.15,2013-03-23 15:22:00,
2013-03-23 09:46:00,20.3,13.3,30.40,ENE,77,1.0,9.0,74,0.00,,,0.00,366,Wunderground v.1.15,2013-03-23 15:46:00,
2013-03-23 09:58:00,21.1,12.8,30.40,ENE,77,1.0,9.0,70,0.00,,,0.00,399,Wunderground v.1.15,2013-03-23 15:58:00,
2013-03-23 10:22:00,21.7,11.7,30.40,WSW,253,3.0,9.0,65,0.00,,,0.00,475,Wunderground v.1.15,2013-03-23 16:22:00,
2013-03-23 10:30:00,22.0,11.7,30.40,West,275,3.0,9.0,64,0.00,,,0.00,497,Wunderground v.1.15,2013-03-23 16:30:00,
2013-03-23 10:40:00,22.2,8.5,30.40,West,275,3.0,3.0,55,0.00,,,0.00,527,Wunderground v.1.15,2013-03-23 16:40:00,
2013-03-23 10:50:00,22.5,10.7,30.40,WSW,253,3.0,9.0,60,0.00,,,0.00,554,Wunderground v.1.15,2013-03-23 16:50:00,
2013-03-23 11:02:00,22.5,10.3,30.40,West,280,3.0,9.0,59,0.00,,,0.00,580,Wunderground v.1.15,2013-03-23 17:02:00,
2013-03-23 11:08:00,22.9,11.1,30.40,West,270,2.0,9.0,60,0.00,,,0.00,594,Wunderground v.1.15,2013-03-23 17:08:00,
2013-03-23 11:16:00,23.4,11.5,30.40,West,260,2.0,9.0,60,0.00,,,0.00,622,Wunderground v.1.15,2013-03-23 17:16:00,
2013-03-23 11:40:00,24.1,11.4,30.40,WSW,256,2.0,2.0,58,0.00,,,0.00,687,Wunderground v.1.15,2013-03-23 17:40:00,
2013-03-23 11:46:00,24.6,11.9,30.40,WSW,256,1.0,9.0,58,0.00,,,0.00,642,Wunderground v.1.15,2013-03-23 17:46:00,
2013-03-23 11:56:00,25.7,14.1,30.40,WSW,243,1.0,9.0,61,0.00,,,0.00,538,Wunderground v.1.15,2013-03-23 17:56:00,
2013-03-23 12:14:00,25.6,12.9,30.39,WSW,238,2.0,9.0,58,0.00,,,0.00,758,Wunderground v.1.15,2013-03-23 18:14:00,
2013-03-23 12:22:00,25.9,13.1,30.39,WSW,238,2.0,9.0,58,0.00,,,0.00,740,Wunderground v.1.15,2013-03-23 18:22:00,
2013-03-23 12:36:00,24.7,13.5,30.39,SW,222,2.0,9.0,62,0.00,,,0.00,555,Wunderground v.1.15,2013-03-23 18:36:00,
2013-03-23 12:52:00,24.0,16.0,30.38,SE,127,4.0,9.0,71,0.00,,,0.00,179,Wunderground v.1.15,2013-03-23 18:52:00,
2013-03-23 13:00:00,23.3,16.9,30.39,SE,144,6.0,9.0,76,0.00,,,0.00,543,Wunderground v.1.15,2013-03-23 19:00:00,
2013-03-23 13:08:00,23.4,16.9,30.38,SSE,149,5.0,9.0,76,0.00,,,0.00,877,Wunderground v.1.15,2013-03-23 19:08:00,
2013-03-23 13:16:00,24.0,17.2,30.38,SSE,149,3.0,9.0,75,0.00,,,0.00,251,Wunderground v.1.15,2013-03-23 19:16:00,
2013-03-23 13:26:00,24.4,17.6,30.37,ESE,103,2.0,9.0,75,0.00,,,0.00,218,Wunderground v.1.15,2013-03-23 19:26:00,
2013-03-23 13:32:00,24.4,17.6,30.37,ESE,103,3.0,9.0,75,0.00,,,0.00,367,Wunderground v.1.15,2013-03-23 19:32:00,
2013-03-23 13:42:00,24.7,17.0,30.37,ESE,103,3.0,9.0,72,0.00,,,0.00,835,Wunderground v.1.15,2013-03-23 19:42:00,
2013-03-23 13:48:00,25.1,16.4,30.37,ESE,103,3.0,9.0,69,0.00,,,0.00,211,Wunderground v.1.15,2013-03-23 19:48:00,
2013-03-23 13:56:00,25.3,15.5,30.37,ESE,104,3.0,9.0,66,0.00,,,0.00,214,Wunderground v.1.15,2013-03-23 19:56:00,
2013-03-23 14:08:00,26.0,15.5,30.37,NE,40,2.0,9.0,64,0.00,,,0.00,193,Wunderground v.1.15,2013-03-23 20:08:00,
2013-03-23 14:20:00,25.7,15.2,30.36,NE,39,2.0,9.0,64,0.00,,,0.00,206,Wunderground v.1.15,2013-03-23 20:20:00,
2013-03-23 14:30:00,25.7,14.8,30.36,SE,144,2.0,9.0,63,0.00,,,0.00,207,Wunderground v.1.15,2013-03-23 20:30:00,
2013-03-23 15:20:00,25.9,16.1,30.36,SW,215,11.0,12.0,66,0.00,,,0.00,113,Wunderground v.1.15,2013-03-23 21:20:00,
2013-03-23 15:28:00,25.4,16.0,30.36,West,280,10.0,11.0,67,0.00,,,0.00,193,Wunderground v.1.15,2013-03-23 21:28:00,
2013-03-23 15:34:00,25.5,16.1,30.36,WSW,241,7.0,8.0,67,0.00,,,0.00,420,Wunderground v.1.15,2013-03-23 21:34:00,
2013-03-23 15:40:00,26.4,16.6,30.36,NW,323,6.0,8.0,66,0.00,,,0.00,719,Wunderground v.1.15,2013-03-23 21:40:00,
2013-03-23 16:18:00,27.8,13.7,30.35,WSW,237,2.0,8.0,55,0.00,,,0.00,520,Wunderground v.1.15,2013-03-23 22:18:00,
2013-03-23 16:24:00,28.1,13.6,30.35,WSW,239,3.0,8.0,54,0.00,,,0.00,515,Wunderground v.1.15,2013-03-23 22:24:00,
2013-03-23 16:38:00,28.4,13.0,30.35,WNW,298,4.0,8.0,52,0.00,,,0.00,128,Wunderground v.1.15,2013-03-23 22:38:00,
2013-03-23 16:58:00,27.2,14.0,30.35,SW,229,4.0,8.0,57,0.00,,,0.00,153,Wunderground v.1.15,2013-03-23 22:58:00,
2013-03-23 17:24:00,26.8,13.2,30.35,ESE,120,2.0,8.0,56,0.00,,,0.00,185,Wunderground v.1.15,2013-03-23 23:24:00,
2013-03-23 17:30:00,27.2,13.6,30.34,ESE,120,1.0,8.0,56,0.00,,,0.00,127,Wunderground v.1.15,2013-03-23 23:30:00,
2013-03-23 18:02:00,26.5,14.1,30.35,SE,140,3.0,8.0,59,0.00,,,0.00,54,Wunderground v.1.15,2013-03-24 00:02:00,
2013-03-23 18:08:00,26.3,13.9,30.34,ESE,108,5.0,8.0,59,0.00,,,0.00,65,Wunderground v.1.15,2013-03-24 00:08:00,
2013-03-23 18:16:00,26.2,13.8,30.34,ESE,119,5.0,8.0,59,0.00,,,0.00,67,Wunderground v.1.15,2013-03-24 00:16:00,
2013-03-23 18:42:00,26.9,14.5,30.34,ENE,66,3.0,8.0,59,0.00,,,0.00,44,Wunderground v.1.15,2013-03-24 00:42:00,
2013-03-23 18:48:00,26.9,14.1,30.34,ENE,66,1.0,8.0,58,0.00,,,0.00,32,Wunderground v.1.15,2013-03-24 00:48:00,
2013-03-23 18:58:00,26.8,12.4,30.34,ENE,66,0.0,8.0,54,0.00,,,0.00,26,Wunderground v.1.15,2013-03-24 00:58:00,
2013-03-23 19:16:00,26.5,12.9,30.34,ENE,64,2.0,8.0,56,0.00,,,0.00,19,Wunderground v.1.15,2013-03-24 01:16:00,
2013-03-23 19:30:00,26.4,15.9,30.34,WNW,285,7.0,7.0,64,0.00,,,0.00,14,Wunderground v.1.15,2013-03-24 01:30:00,
2013-03-23 19:40:00,26.2,16.0,30.34,WNW,285,10.0,11.0,65,0.00,,,0.00,7,Wunderground v.1.15,2013-03-24 01:40:00,
2013-03-23 19:50:00,26.0,15.8,30.35,West,275,9.0,9.0,65,0.00,,,0.00,0,Wunderground v.1.15,2013-03-24 01:50:00,
2013-03-23 19:58:00,25.6,15.8,30.35,WNW,298,7.0,9.0,66,0.00,,,0.00,0,Wunderground v.1.15,2013-03-24 01:58:00,
2013-03-23 20:04:00,25.4,15.6,30.35,NW,304,7.0,8.0,66,0.00,,,0.00,0,Wunderground v.1.15,2013-03-24 02:04:00,
2013-03-23 20:24:00,24.5,15.1,30.36,NW,304,4.0,8.0,67,0.00,,,0.00,0,Wunderground v.1.15,2013-03-24 02:24:00,
2013-03-23 20:30:00,24.4,15.0,30.36,NW,305,3.0,3.0,67,0.00,,,0.00,0,Wunderground v.1.15,2013-03-24 02:30:00,
2013-03-23 20:38:00,23.9,14.5,30.36,NNW,334,2.0,8.0,67,0.00,,,0.00,0,Wunderground v.1.15,2013-03-24 02:38:00,
2013-03-23 20:54:00,23.6,13.9,30.36,NNW,343,2.0,8.0,66,0.00,,,0.00,0,Wunderground v.1.15,2013-03-24 02:54:00,
2013-03-23 21:00:00,23.4,14.0,30.37,NNW,343,2.0,8.0,67,0.00,,,0.00,0,Wunderground v.1.15,2013-03-24 03:00:00,
2013-03-23 21:32:00,22.5,14.2,30.37,NNW,333,1.0,8.0,70,0.00,,,0.00,0,Wunderground v.1.15,2013-03-24 03:32:00,
2013-03-23 22:38:00,23.2,16.1,30.39,East,82,4.0,8.0,74,0.00,,,0.00,0,Wunderground v.1.15,2013-03-24 04:38:00,
2013-03-23 22:44:00,23.2,15.8,30.38,ENE,74,4.0,8.0,73,0.00,,,0.00,0,Wunderground v.1.15,2013-03-24 04:44:00,
2013-03-23 23:04:00,23.3,16.5,30.39,ENE,76,7.0,8.0,75,0.00,,,0.00,0,Wunderground v.1.15,2013-03-24 05:04:00,
2013-03-23 23:32:00,23.2,15.5,30.39,East,101,7.0,9.0,72,0.00,,,0.00,0,Wunderground v.1.15,2013-03-24 05:32:00,
2013-03-23 23:52:00,22.8,14.1,30.38,East,101,9.0,10.0,69,0.00,,,0.00,0,Wunderground v.1.15,2013-03-24 05:52:00,